createdAt,value
2023-02-12T00:01:28.735Z,99.90
2023-02-12T00:03:56.876Z,99.90
2023-02-12T00:06:27.319Z,99.90
2023-02-12T00:08:58.457Z,99.90
2023-02-12T00:11:29.578Z,99.90
2023-02-12T00:13:58.009Z,99.90
2023-02-12T00:16:29.040Z,99.90
2023-02-12T00:18:58.853Z,99.90
2023-02-12T00:21:26.512Z,99.90
2023-02-12T00:23:53.859Z,99.90
2023-02-12T00:26:23.008Z,99.90
2023-02-12T00:28:51.283Z,99.90
2023-02-12T00:31:25.815Z,99.90
2023-02-12T00:33:53.653Z,99.90
2023-02-12T00:36:27.448Z,99.90
2023-02-12T00:38:56.683Z,99.90
2023-02-12T00:41:23.970Z,99.90
2023-02-12T00:43:51.411Z,99.90
2023-02-12T00:46:18.759Z,99.90
2023-02-12T00:48:46.329Z,99.90
2023-02-12T00:51:14.279Z,99.90
2023-02-12T00:53:44.207Z,99.90
2023-02-12T00:56:11.552Z,99.90
2023-02-12T00:58:38.728Z,99.90
2023-02-12T01:01:06.185Z,99.90
2023-02-12T01:03:33.499Z,99.90
2023-02-12T01:06:00.768Z,99.90
2023-02-12T01:08:27.956Z,99.90
2023-02-12T01:10:58.644Z,99.90
2023-02-12T01:13:27.193Z,99.90
2023-02-12T01:16:08.900Z,99.90
2023-02-12T01:18:37.798Z,99.90
2023-02-12T01:21:24.207Z,99.90
2023-02-12T01:23:51.757Z,99.90
2023-02-12T01:26:23.607Z,99.90
2023-02-12T01:28:58.312Z,99.90
2023-02-12T01:31:28.566Z,99.90
2023-02-12T01:33:58.816Z,99.90
2023-02-12T01:36:27.329Z,99.90
2023-02-12T01:38:56.108Z,99.90
2023-02-12T01:41:27.330Z,99.90
2023-02-12T01:44:11.461Z,99.90
2023-02-12T01:46:39.711Z,99.90
2023-02-12T01:49:22.778Z,99.90
2023-02-12T01:51:59.225Z,99.90
2023-02-12T01:54:27.158Z,99.90
2023-02-12T01:56:55.161Z,99.90
2023-02-12T01:59:23.275Z,99.90
2023-02-12T02:01:50.590Z,99.90
2023-02-12T02:04:23.910Z,99.90
2023-02-12T02:06:54.515Z,99.90
2023-02-12T02:09:21.857Z,99.90
2023-02-12T02:12:07.763Z,99.90
2023-02-12T02:14:35.646Z,99.90
2023-02-12T02:18:10.207Z,99.90
2023-02-12T02:20:51.716Z,99.90
2023-02-12T02:23:55.998Z,99.90
2023-02-12T02:26:57.110Z,99.90
2023-02-12T02:29:38.927Z,99.90
2023-02-12T02:32:55.469Z,99.90
2023-02-12T02:35:34.567Z,99.90
2023-02-12T02:38:19.693Z,99.90
2023-02-12T02:41:10.704Z,99.90
2023-02-12T02:43:50.877Z,99.90
2023-02-12T02:46:51.135Z,99.90
2023-02-12T02:49:52.606Z,99.90
2023-02-12T02:52:52.679Z,99.90
2023-02-12T02:55:24.165Z,99.90
2023-02-12T02:58:17.050Z,99.90
2023-02-12T03:01:06.162Z,99.90
2023-02-12T03:03:54.992Z,99.90
2023-02-12T03:06:30.628Z,99.90
2023-02-12T03:09:09.578Z,99.90
2023-02-12T03:11:36.805Z,99.90
2023-02-12T03:14:38.359Z,99.90
2023-02-12T03:17:34.003Z,99.90
2023-02-12T03:20:22.040Z,99.90
2023-02-12T03:23:12.483Z,99.90
2023-02-12T03:25:57.597Z,99.90
2023-02-12T03:28:33.946Z,99.90
2023-02-12T03:31:16.295Z,99.90
2023-02-12T03:33:52.451Z,99.90
2023-02-12T03:37:34.066Z,99.90
2023-02-12T03:40:45.497Z,99.90
2023-02-12T03:43:31.176Z,99.90
2023-02-12T03:46:08.244Z,99.90
2023-02-12T03:49:06.148Z,99.90
2023-02-12T03:51:44.014Z,99.90
2023-02-12T03:54:16.495Z,99.90
2023-02-12T03:57:03.785Z,99.90
2023-02-12T03:59:37.882Z,99.90
2023-02-12T04:02:05.559Z,99.90
2023-02-12T04:04:33.168Z,99.90
2023-02-12T04:07:01.026Z,99.90
2023-02-12T04:09:29.461Z,99.90
2023-02-12T04:12:38.781Z,99.90
2023-02-12T04:15:32.269Z,99.90
2023-02-12T04:18:46.878Z,99.90
2023-02-12T04:21:38.862Z,99.90
2023-02-12T04:24:11.993Z,99.90
2023-02-12T04:27:44.541Z,99.90
2023-02-12T04:30:20.862Z,99.90
2023-02-12T04:32:59.677Z,99.90
2023-02-12T04:35:40.236Z,99.90
2023-02-12T04:38:20.611Z,99.90
2023-02-12T04:40:49.303Z,99.90
2023-02-12T04:43:37.100Z,99.90
2023-02-12T04:46:06.839Z,99.90
2023-02-12T04:48:35.683Z,99.90
2023-02-12T04:51:03.026Z,99.90
2023-02-12T04:53:30.380Z,99.90
2023-02-12T04:55:57.922Z,99.90
2023-02-12T04:58:25.415Z,99.90
2023-02-12T05:00:52.506Z,99.90
2023-02-12T05:03:19.605Z,99.90
2023-02-12T05:05:49.966Z,99.90
2023-02-12T05:08:17.174Z,99.90
2023-02-12T05:10:44.455Z,99.90
2023-02-12T05:13:11.622Z,99.90
2023-02-12T05:15:41.760Z,99.90
2023-02-12T05:18:08.863Z,99.90
2023-02-12T05:20:36.015Z,99.90
2023-02-12T05:23:03.355Z,99.90
2023-02-12T05:25:32.015Z,99.90
2023-02-12T05:28:02.661Z,99.90
2023-02-12T05:30:29.915Z,99.90
2023-02-12T05:32:57.128Z,99.90
2023-02-12T05:35:24.327Z,99.90
2023-02-12T05:37:51.420Z,99.90
2023-02-12T05:40:18.842Z,99.90
2023-02-12T05:42:45.966Z,99.90
2023-02-12T05:45:13.018Z,99.90
2023-02-12T05:47:40.251Z,99.90
2023-02-12T05:50:08.486Z,99.90
2023-02-12T05:52:35.836Z,99.90
2023-02-12T05:55:03.586Z,99.90
2023-02-12T05:57:30.879Z,99.90
2023-02-12T05:59:58.107Z,99.90
2023-02-12T06:02:25.425Z,99.90
2023-02-12T06:04:52.785Z,99.90
2023-02-12T06:07:23.126Z,99.90
2023-02-12T06:09:50.752Z,99.90
2023-02-12T06:12:17.913Z,99.90
2023-02-12T06:14:45.069Z,99.90
2023-02-12T06:17:12.229Z,99.90
2023-02-12T06:19:39.456Z,99.90
2023-02-12T06:22:06.874Z,99.90
2023-02-12T06:24:34.146Z,99.90
2023-02-12T06:27:01.261Z,99.90
2023-02-12T06:29:28.372Z,99.90
2023-02-12T06:31:59.124Z,99.90
2023-02-12T06:34:29.680Z,99.90
2023-02-12T06:36:57.272Z,99.90
2023-02-12T06:39:24.873Z,99.90
2023-02-12T06:41:52.243Z,99.90
2023-02-12T06:44:19.454Z,99.90
2023-02-12T06:46:46.653Z,99.90
2023-02-12T06:49:15.110Z,99.90
2023-02-12T06:51:42.711Z,99.90
2023-02-12T06:54:16.487Z,99.90
2023-02-12T06:56:44.382Z,99.90
2023-02-12T06:59:15.592Z,99.90
2023-02-12T07:01:43.203Z,99.90
2023-02-12T07:04:11.613Z,99.90
2023-02-12T07:06:39.140Z,99.90
2023-02-12T07:09:09.739Z,99.90
2023-02-12T07:11:38.670Z,99.90
2023-02-12T07:14:07.253Z,99.90
2023-02-12T07:16:37.938Z,99.90
2023-02-12T07:19:05.061Z,99.90
2023-02-12T07:21:32.499Z,99.90
2023-02-12T07:24:00.166Z,99.90
2023-02-12T07:26:27.973Z,99.90
2023-02-12T07:28:56.661Z,99.90
2023-02-12T07:31:27.338Z,99.90
2023-02-12T07:33:59.482Z,99.90
2023-02-12T07:36:30.671Z,99.90
2023-02-12T07:38:59.565Z,99.90
2023-02-12T07:41:31.050Z,99.90
2023-02-12T07:44:07.357Z,99.90
2023-02-12T07:46:39.841Z,99.90
2023-02-12T07:49:11.397Z,99.90
2023-02-12T07:51:38.806Z,99.90
2023-02-12T07:54:10.831Z,99.90
2023-02-12T07:56:39.832Z,99.90
2023-02-12T07:59:12.191Z,99.90
2023-02-12T08:01:48.477Z,99.90
2023-02-12T08:04:19.804Z,99.90
2023-02-12T08:06:53.624Z,99.90
2023-02-12T08:09:27.252Z,99.90
2023-02-12T08:11:54.537Z,99.90
2023-02-12T08:14:22.352Z,99.90
2023-02-12T08:16:51.061Z,99.90
2023-02-12T08:19:23.239Z,99.90
2023-02-12T08:21:54.184Z,99.90
2023-02-12T08:24:24.589Z,99.90
2023-02-12T08:26:52.361Z,99.90
2023-02-12T08:29:27.339Z,99.90
2023-02-12T08:32:03.620Z,99.90
2023-02-12T08:34:35.301Z,99.90
2023-02-12T08:37:05.886Z,99.90
2023-02-12T08:39:33.126Z,99.90
2023-02-12T08:42:01.797Z,99.90
2023-02-12T08:44:29.672Z,99.90
2023-02-12T08:46:56.910Z,99.90
2023-02-12T08:49:28.240Z,99.90
2023-02-12T08:51:57.660Z,99.90
2023-02-12T08:54:28.069Z,99.90
2023-02-12T08:56:58.250Z,99.90
2023-02-12T08:59:29.656Z,99.90
2023-02-12T09:01:56.901Z,99.90
2023-02-12T09:04:27.537Z,99.90
2023-02-12T09:06:55.222Z,99.90
2023-02-12T09:09:22.855Z,99.90
2023-02-12T09:11:50.200Z,99.90
2023-02-12T09:14:23.737Z,99.90
2023-02-12T09:16:53.243Z,99.90
2023-02-12T09:19:21.058Z,99.90
2023-02-12T09:21:56.645Z,99.90
2023-02-12T09:24:25.709Z,99.90
2023-02-12T09:26:52.876Z,99.90
2023-02-12T09:29:20.365Z,99.90
2023-02-12T09:31:47.757Z,99.90
2023-02-12T09:34:15.210Z,99.90
2023-02-12T09:36:42.836Z,99.90
2023-02-12T09:39:10.060Z,99.90
2023-02-12T09:41:58.443Z,99.90
2023-02-12T09:44:51.599Z,99.90
2023-02-12T09:47:45.289Z,99.90
2023-02-12T09:50:27.641Z,99.90
2023-02-12T09:52:58.124Z,99.90
2023-02-12T09:55:32.917Z,99.90
2023-02-12T09:58:07.196Z,99.90
2023-02-12T10:00:39.082Z,99.90
2023-02-12T10:03:16.450Z,99.90
2023-02-12T10:05:56.976Z,99.90
2023-02-12T10:09:01.850Z,99.90
2023-02-12T10:11:52.755Z,99.90
2023-02-12T10:14:22.841Z,99.90
2023-02-12T10:16:59.145Z,99.90
2023-02-12T10:19:55.020Z,99.90
2023-02-12T10:22:56.547Z,99.90
2023-02-12T10:25:57.871Z,99.90
2023-02-12T10:28:41.009Z,99.90
2023-02-12T10:31:34.969Z,99.90
2023-02-12T10:34:17.608Z,99.90
2023-02-12T10:36:56.090Z,99.90
2023-02-12T10:39:32.319Z,99.90
2023-02-12T10:42:10.860Z,99.90
2023-02-12T10:44:38.489Z,99.90
2023-02-12T10:47:06.692Z,99.90
2023-02-12T10:49:37.266Z,99.90
2023-02-12T10:52:27.991Z,99.90
2023-02-12T10:54:55.811Z,99.90
2023-02-12T10:57:30.042Z,99.90
2023-02-12T11:00:39.116Z,99.90
2023-02-12T11:03:21.887Z,99.90
2023-02-12T11:05:49.948Z,99.90
2023-02-12T11:08:39.371Z,99.90
2023-02-12T11:11:31.527Z,99.90
2023-02-12T11:14:21.325Z,99.90
2023-02-12T11:16:54.713Z,99.90
2023-02-12T11:19:32.392Z,99.90
2023-02-12T11:22:19.103Z,99.90
2023-02-12T11:24:48.418Z,99.90
2023-02-12T11:27:16.448Z,99.90
2023-02-12T11:29:48.703Z,99.90
2023-02-12T11:32:19.796Z,99.90
2023-02-12T11:35:18.658Z,99.90
2023-02-12T11:37:47.541Z,99.90
2023-02-12T11:40:26.565Z,99.60
2023-02-12T11:43:01.282Z,99.00
2023-02-12T11:45:51.780Z,98.90
2023-02-12T11:48:34.821Z,99.10
2023-02-12T11:51:06.313Z,98.50
2023-02-12T11:53:43.345Z,97.90
2023-02-12T11:56:15.445Z,98.10
2023-02-12T11:58:48.387Z,97.30
2023-02-12T12:01:30.455Z,97.00
2023-02-12T12:04:20.588Z,96.90
2023-02-12T12:07:07.822Z,96.20
2023-02-12T12:09:59.345Z,96.10
2023-02-12T12:12:45.702Z,95.60
2023-02-12T12:15:48.066Z,95.20
2023-02-12T12:19:11.169Z,94.90
2023-02-12T12:22:09.952Z,93.90
2023-02-12T12:25:08.350Z,94.00
2023-02-12T12:28:35.932Z,94.00
2023-02-12T12:31:35.099Z,94.60
2023-02-12T12:34:21.314Z,95.20
2023-02-12T12:37:06.498Z,95.30
2023-02-12T12:39:41.320Z,95.90
2023-02-12T12:42:34.711Z,96.30
2023-02-12T12:45:23.225Z,96.00
2023-02-12T12:47:56.870Z,95.90
2023-02-12T12:51:03.845Z,96.10
2023-02-12T12:54:03.243Z,96.60
2023-02-12T12:56:57.666Z,97.30
2023-02-12T12:59:48.761Z,97.90
2023-02-12T13:03:00.133Z,98.50
2023-02-12T13:06:01.716Z,98.80
2023-02-12T13:08:48.083Z,99.00
2023-02-12T13:11:49.075Z,99.10
2023-02-12T13:14:47.096Z,99.50
2023-02-12T13:17:46.439Z,99.80
2023-02-12T13:20:51.728Z,99.90
2023-02-12T13:23:36.327Z,99.90
2023-02-12T13:26:47.977Z,99.90
2023-02-12T13:29:45.127Z,99.90
2023-02-12T13:32:36.486Z,99.00
2023-02-12T13:35:07.556Z,98.80
2023-02-12T13:37:49.285Z,98.50
2023-02-12T13:40:32.345Z,98.90
2023-02-12T13:43:37.096Z,99.20
2023-02-12T13:46:14.580Z,99.30
2023-02-12T13:49:17.815Z,99.20
2023-02-12T13:52:01.009Z,98.70
2023-02-12T13:54:57.310Z,98.90
2023-02-12T13:57:25.640Z,99.10
2023-02-12T13:59:58.563Z,98.90
2023-02-12T14:02:39.090Z,99.00
2023-02-12T14:05:30.633Z,99.20
2023-02-12T14:08:06.093Z,99.30
2023-02-12T14:10:41.249Z,99.30
2023-02-12T14:13:28.251Z,99.40
2023-02-12T14:15:59.315Z,99.40
2023-02-12T14:18:35.835Z,99.40
2023-02-12T14:21:12.811Z,99.50
2023-02-12T14:23:46.680Z,99.50
2023-02-12T14:26:36.032Z,99.70
2023-02-12T14:29:17.644Z,99.50
2023-02-12T14:31:46.116Z,99.60
2023-02-12T14:34:17.134Z,99.60
2023-02-12T14:37:09.649Z,99.50
2023-02-12T14:39:38.299Z,99.70
2023-02-12T14:42:29.983Z,99.60
2023-02-12T14:44:59.288Z,99.80
2023-02-12T14:47:32.916Z,99.90
2023-02-12T14:50:26.085Z,99.90
2023-02-12T14:53:27.163Z,99.90
2023-02-12T14:55:56.356Z,99.90
2023-02-12T14:58:28.570Z,99.90
2023-02-12T15:01:00.937Z,99.90
2023-02-12T15:03:39.645Z,99.90
2023-02-12T15:06:27.782Z,99.90
2023-02-12T15:09:33.529Z,99.90
2023-02-12T15:12:30.045Z,99.90
2023-02-12T15:15:40.964Z,99.90
2023-02-12T15:18:40.910Z,99.90
2023-02-12T15:21:37.413Z,99.90
2023-02-12T15:24:05.972Z,99.90
2023-02-12T15:26:45.683Z,99.90
2023-02-12T15:29:34.108Z,99.90
2023-02-12T15:32:07.431Z,99.90
2023-02-12T15:34:41.173Z,99.90
2023-02-12T15:37:10.874Z,99.90
2023-02-12T15:39:48.296Z,99.90
2023-02-12T15:42:33.776Z,99.90
2023-02-12T15:45:17.283Z,99.90
2023-02-12T15:47:58.500Z,99.90
2023-02-12T15:50:27.256Z,99.90
2023-02-12T15:52:57.189Z,99.90
2023-02-12T15:55:29.587Z,99.90
2023-02-12T15:58:01.619Z,99.90
2023-02-12T16:00:48.485Z,99.90
2023-02-12T16:03:27.726Z,99.90
2023-02-12T16:06:14.275Z,99.90
2023-02-12T16:08:47.820Z,99.90
2023-02-12T16:11:22.744Z,99.90
2023-02-12T16:14:09.301Z,99.90
2023-02-12T16:16:51.612Z,99.90
2023-02-12T16:19:22.161Z,99.90
2023-02-12T16:22:14.905Z,99.90
2023-02-12T16:24:52.636Z,99.90
2023-02-12T16:27:33.751Z,99.90
2023-02-12T16:30:39.506Z,99.90
2023-02-12T16:33:59.853Z,99.90
2023-02-12T16:36:33.252Z,99.90
2023-02-12T16:39:08.635Z,99.90
2023-02-12T16:41:56.847Z,99.90
2023-02-12T16:44:30.088Z,99.90
2023-02-12T16:47:02.157Z,99.90
2023-02-12T16:49:30.774Z,99.90
2023-02-12T16:52:27.001Z,99.90
2023-02-12T16:54:57.088Z,99.90
2023-02-12T16:57:29.217Z,99.90
2023-02-12T16:59:57.626Z,99.90
2023-02-12T17:02:26.079Z,99.90
2023-02-12T17:04:56.741Z,99.90
2023-02-12T17:07:29.690Z,99.90
2023-02-12T17:09:58.168Z,99.90
2023-02-12T17:12:30.361Z,99.90
2023-02-12T17:15:05.486Z,99.90
2023-02-12T17:17:34.967Z,99.90
2023-02-12T17:20:03.943Z,99.90
2023-02-12T17:22:32.361Z,99.90
2023-02-12T17:25:00.266Z,99.90
2023-02-12T17:27:28.822Z,99.90
2023-02-12T17:29:58.923Z,99.90
2023-02-12T17:32:28.038Z,99.90
2023-02-12T17:34:57.232Z,99.90
2023-02-12T17:37:25.977Z,99.90
2023-02-12T17:39:56.884Z,99.90
2023-02-12T17:42:27.424Z,99.90
2023-02-12T17:44:56.001Z,99.90
2023-02-12T17:47:25.226Z,99.90
2023-02-12T17:49:53.644Z,99.90
2023-02-12T17:52:22.557Z,99.90
2023-02-12T17:54:54.099Z,99.90
2023-02-12T17:57:22.883Z,99.90
2023-02-12T17:59:54.332Z,99.90
2023-02-12T18:02:22.703Z,99.90
2023-02-12T18:04:54.670Z,99.90
2023-02-12T18:07:23.927Z,99.90
2023-02-12T18:09:52.496Z,99.90
2023-02-12T18:12:20.897Z,99.90
2023-02-12T18:14:49.413Z,99.90
2023-02-12T18:17:18.820Z,99.90
2023-02-12T18:19:48.756Z,99.90
2023-02-12T18:22:17.661Z,99.90
2023-02-12T18:24:51.740Z,99.90
2023-02-12T18:27:21.693Z,99.90
2023-02-12T18:29:54.550Z,99.90
2023-02-12T18:32:25.157Z,99.90
2023-02-12T18:34:54.935Z,99.90
2023-02-12T18:37:26.490Z,99.90
2023-02-12T18:39:55.400Z,99.90
2023-02-12T18:42:24.313Z,99.90
2023-02-12T18:44:53.131Z,99.90
2023-02-12T18:47:24.373Z,99.90
2023-02-12T18:49:53.824Z,99.90
2023-02-12T18:52:22.357Z,99.90
2023-02-12T18:54:54.395Z,99.90
2023-02-12T18:57:23.748Z,99.90
2023-02-12T18:59:54.648Z,99.90
2023-02-12T19:02:26.592Z,99.90
2023-02-12T19:04:55.880Z,99.90
2023-02-12T19:07:24.478Z,99.90
2023-02-12T19:09:53.795Z,99.90
2023-02-12T19:12:22.137Z,99.90
2023-02-12T19:14:50.390Z,99.90
2023-02-12T19:17:20.622Z,99.90
2023-02-12T19:19:58.827Z,99.90
2023-02-12T19:22:27.242Z,99.90
2023-02-12T19:24:56.017Z,99.90
2023-02-12T19:27:24.630Z,99.90
2023-02-12T19:29:53.829Z,99.90
2023-02-12T19:32:23.270Z,99.90
2023-02-12T19:34:52.064Z,99.90
2023-02-12T19:37:20.807Z,99.90
2023-02-12T19:39:50.536Z,99.90
2023-02-12T19:42:21.171Z,99.90
2023-02-12T19:44:49.838Z,99.90
2023-02-12T19:47:19.614Z,99.90
2023-02-12T19:49:49.370Z,99.90
2023-02-12T19:52:18.138Z,99.90
2023-02-12T19:54:46.910Z,99.90
2023-02-12T19:57:15.989Z,99.90
2023-02-12T19:59:47.820Z,99.90
2023-02-12T20:02:17.231Z,99.90
2023-02-12T20:04:46.288Z,99.90
2023-02-12T20:07:16.285Z,99.90
2023-02-12T20:09:46.003Z,99.90
2023-02-12T20:12:14.900Z,99.90
2023-02-12T20:14:43.486Z,99.90
2023-02-12T20:17:18.430Z,99.90
2023-02-12T20:19:50.088Z,99.90
2023-02-12T20:22:19.235Z,99.90
2023-02-12T20:24:53.781Z,99.90
2023-02-12T20:27:25.675Z,99.90
2023-02-12T20:29:57.384Z,99.90
2023-02-12T20:32:26.082Z,99.90
2023-02-12T20:34:54.518Z,99.90
2023-02-12T20:37:24.499Z,99.90
2023-02-12T20:39:56.014Z,99.90
2023-02-12T20:42:24.668Z,99.90
2023-02-12T20:44:53.771Z,99.90
2023-02-12T20:47:30.416Z,99.90
2023-02-12T20:50:00.136Z,99.90
2023-02-12T20:52:27.972Z,99.90
2023-02-12T20:55:02.145Z,99.90
2023-02-12T20:57:34.103Z,99.90
2023-02-12T21:00:07.010Z,99.90
2023-02-12T21:02:37.942Z,99.90
2023-02-12T21:05:07.027Z,99.90
2023-02-12T21:07:35.544Z,99.90
2023-02-12T21:10:04.436Z,99.90
2023-02-12T21:12:32.733Z,99.90
2023-02-12T21:15:00.844Z,99.90
2023-02-12T21:17:30.268Z,99.90
2023-02-12T21:19:59.615Z,99.90
2023-02-12T21:22:27.760Z,99.90
2023-02-12T21:24:59.910Z,99.90
2023-02-12T21:27:30.985Z,99.90
2023-02-12T21:29:59.127Z,99.90
2023-02-12T21:32:27.450Z,99.90
2023-02-12T21:34:55.137Z,99.90
2023-02-12T21:37:23.104Z,99.90
2023-02-12T21:39:53.311Z,99.90
2023-02-12T21:42:24.123Z,99.90
2023-02-12T21:44:51.584Z,99.90
2023-02-12T21:47:19.553Z,99.90
2023-02-12T21:49:47.097Z,99.90
2023-02-12T21:52:14.830Z,99.90
2023-02-12T21:54:42.318Z,99.90
2023-02-12T21:57:09.956Z,99.90
2023-02-12T21:59:37.284Z,99.90
2023-02-12T22:02:05.432Z,99.90
2023-02-12T22:04:32.823Z,99.90
2023-02-12T22:07:03.273Z,99.90
2023-02-12T22:09:30.744Z,99.90
2023-02-12T22:12:01.150Z,99.90
2023-02-12T22:14:28.468Z,99.90
2023-02-12T22:16:59.097Z,99.90
2023-02-12T22:19:26.302Z,99.90
2023-02-12T22:21:53.531Z,99.90
2023-02-12T22:24:23.684Z,99.90
2023-02-12T22:26:50.945Z,99.90
2023-02-12T22:29:18.322Z,99.90
2023-02-12T22:31:47.485Z,99.90
2023-02-12T22:34:18.946Z,99.90
2023-02-12T22:36:49.313Z,99.90
2023-02-12T22:39:17.958Z,99.90
2023-02-12T22:41:48.321Z,99.90
2023-02-12T22:44:16.450Z,99.90
2023-02-12T22:46:46.627Z,99.90
2023-02-12T22:49:14.558Z,99.90
2023-02-12T22:51:45.534Z,99.90
2023-02-12T22:54:16.062Z,99.90
2023-02-12T22:56:44.609Z,99.90
2023-02-12T22:59:12.882Z,99.90
2023-02-12T23:01:41.107Z,99.90
2023-02-12T23:04:19.178Z,99.90
2023-02-12T23:06:47.030Z,99.90
2023-02-12T23:09:19.037Z,99.90
2023-02-12T23:11:47.198Z,99.90
2023-02-12T23:14:14.660Z,99.90
2023-02-12T23:16:42.296Z,99.90
2023-02-12T23:19:11.017Z,99.90
2023-02-12T23:21:38.430Z,99.90
2023-02-12T23:24:05.935Z,99.90
2023-02-12T23:26:33.033Z,99.90
2023-02-12T23:29:00.188Z,99.90
2023-02-12T23:31:27.517Z,99.90
2023-02-12T23:33:54.706Z,99.90
2023-02-12T23:36:22.152Z,99.90
2023-02-12T23:38:49.256Z,99.90
2023-02-12T23:41:16.517Z,99.90
2023-02-12T23:43:43.665Z,99.90
2023-02-12T23:46:10.977Z,99.90
2023-02-12T23:48:38.357Z,99.90
2023-02-12T23:51:05.697Z,99.90
2023-02-12T23:53:33.314Z,99.90
2023-02-12T23:56:00.499Z,99.90
2023-02-12T23:58:27.956Z,99.90
